Time,TemperatureF,DewpointF,PressureIn,WindDirection,WindDirectionDegrees,WindSpeedMPH,WindSpeedGustMPH,Humidity,HourlyPrecipIn,Conditions,Clouds,dailyrainin,SoftwareType,DateUTC
2013-03-05 00:11:00,28.0,11.0,-100.00,NW,311,2.0,2.0,49,-99.99,,,-99.99,,2013-03-05 07:11:00,
2013-03-05 00:21:00,28.0,11.0,-100.00,NW,311,2.0,2.0,49,-99.99,,,-99.99,,2013-03-05 07:21:00,
2013-03-05 00:30:00,27.0,12.0,-100.00,NNW,332,2.0,2.0,52,-99.99,,,-99.99,,2013-03-05 07:30:00,
2013-03-05 01:11:00,27.0,12.0,-100.00,NNW,332,2.0,2.0,52,-99.99,,,-99.99,,2013-03-05 08:11:00,
2013-03-05 01:21:00,27.0,12.0,-100.00,NNW,332,2.0,2.0,52,-99.99,,,-99.99,,2013-03-05 08:21:00,
2013-03-05 01:30:00,26.0,13.0,-100.00,NW,312,2.0,2.0,57,-99.99,,,-99.99,,2013-03-05 08:30:00,
2013-03-05 02:11:00,26.0,13.0,-100.00,NW,312,2.0,2.0,57,-99.99,,,-99.99,,2013-03-05 09:11:00,
2013-03-05 02:21:00,26.0,13.0,-100.00,NW,312,2.0,2.0,57,-99.99,,,-99.99,,2013-03-05 09:21:00,
2013-03-05 02:30:00,25.0,12.0,-100.00,NW,314,2.0,2.0,58,-99.99,,,-99.99,,2013-03-05 09:30:00,
2013-03-05 03:11:00,25.0,12.0,-100.00,NW,314,2.0,2.0,58,-99.99,,,-99.99,,2013-03-05 10:11:00,
2013-03-05 03:21:00,25.0,12.0,-100.00,NW,314,2.0,2.0,58,-99.99,,,-99.99,,2013-03-05 10:21:00,
2013-03-05 03:30:00,24.0,13.0,-100.00,NW,307,2.0,2.0,61,-99.99,,,-99.99,,2013-03-05 10:30:00,
2013-03-05 04:11:00,24.0,13.0,-100.00,NW,307,2.0,2.0,61,-99.99,,,-99.99,,2013-03-05 11:11:00,
2013-03-05 04:22:00,24.0,13.0,-100.00,NW,307,2.0,2.0,61,-99.99,,,-99.99,,2013-03-05 11:22:00,
2013-03-05 04:30:00,24.0,13.0,-100.00,NW,324,2.0,2.0,61,-99.99,,,-99.99,,2013-03-05 11:30:00,
2013-03-05 05:11:00,24.0,13.0,-100.00,NW,324,2.0,2.0,61,-99.99,,,-99.99,,2013-03-05 12:11:00,
2013-03-05 05:22:00,24.0,13.0,-100.00,NW,324,2.0,2.0,61,-99.99,,,-99.99,,2013-03-05 12:22:00,
2013-03-05 05:30:00,23.0,14.0,-100.00,NW,325,2.0,2.0,67,-99.99,,,-99.99,,2013-03-05 12:30:00,
2013-03-05 06:11:00,23.0,14.0,-100.00,NW,325,2.0,2.0,67,-99.99,,,-99.99,,2013-03-05 13:11:00,
2013-03-05 06:21:00,23.0,14.0,-100.00,NW,325,2.0,2.0,67,-99.99,,,-99.99,,2013-03-05 13:21:00,
2013-03-05 06:30:00,22.0,14.0,-100.00,NNW,331,2.0,2.0,72,-99.99,,,-99.99,,2013-03-05 13:30:00,
2013-03-05 07:11:00,22.0,14.0,-100.00,NNW,331,2.0,2.0,72,-99.99,,,-99.99,,2013-03-05 14:11:00,
2013-03-05 07:21:00,22.0,14.0,-100.00,NNW,331,2.0,2.0,72,-99.99,,,-99.99,,2013-03-05 14:21:00,
2013-03-05 07:30:00,22.0,15.0,-100.00,North,350,2.0,2.0,74,-99.99,,,-99.99,,2013-03-05 14:30:00,
2013-03-05 08:11:00,22.0,15.0,-100.00,North,350,2.0,2.0,74,-99.99,,,-99.99,,2013-03-05 15:11:00,
2013-03-05 08:21:00,22.0,15.0,-100.00,North,350,2.0,2.0,74,-99.99,,,-99.99,,2013-03-05 15:21:00,
2013-03-05 08:30:00,22.0,14.0,-100.00,NNW,328,2.0,2.0,72,-99.99,,,-99.99,,2013-03-05 15:30:00,
2013-03-05 09:11:00,22.0,14.0,-100.00,NNW,328,2.0,2.0,72,-99.99,,,-99.99,,2013-03-05 16:11:00,
2013-03-05 09:21:00,22.0,14.0,-100.00,NNW,328,2.0,2.0,72,-99.99,,,-99.99,,2013-03-05 16:21:00,
2013-03-05 09:30:00,26.0,17.0,-100.00,NNW,339,2.0,2.0,68,-99.99,,,-99.99,,2013-03-05 16:30:00,
2013-03-05 10:11:00,26.0,17.0,-100.00,NNW,339,2.0,2.0,68,-99.99,,,-99.99,,2013-03-05 17:11:00,
2013-03-05 10:21:00,26.0,17.0,-100.00,NNW,339,2.0,2.0,68,-99.99,,,-99.99,,2013-03-05 17:21:00,
2013-03-05 10:30:00,28.0,17.0,-100.00,North,360,2.0,2.0,63,-99.99,,,-99.99,,2013-03-05 17:30:00,
2013-03-05 11:11:00,28.0,17.0,-100.00,North,360,2.0,2.0,63,-99.99,,,-99.99,,2013-03-05 18:11:00,
2013-03-05 11:21:00,28.0,17.0,-100.00,North,360,2.0,2.0,63,-99.99,,,-99.99,,2013-03-05 18:21:00,
2013-03-05 11:30:00,30.0,17.0,-100.00,NNE,13,2.0,2.0,58,-99.99,,,-99.99,,2013-03-05 18:30:00,
2013-03-05 12:11:00,30.0,17.0,-100.00,NNE,13,2.0,2.0,58,-99.99,,,-99.99,,2013-03-05 19:11:00,
2013-03-05 12:21:00,30.0,17.0,-100.00,NNE,13,2.0,2.0,58,-99.99,,,-99.99,,2013-03-05 19:21:00,
2013-03-05 12:30:00,32.0,18.0,-100.00,NNE,15,2.0,2.0,55,-99.99,,,-99.99,,2013-03-05 19:30:00,
2013-03-05 13:11:00,32.0,18.0,-100.00,NNE,15,2.0,2.0,55,-99.99,,,-99.99,,2013-03-05 20:11:00,
2013-03-05 13:21:00,32.0,18.0,-100.00,NNE,15,2.0,2.0,55,-99.99,,,-99.99,,2013-03-05 20:21:00,
2013-03-05 13:30:00,34.0,17.0,-100.00,North,3,2.0,2.0,50,-99.99,,,-99.99,,2013-03-05 20:30:00,
2013-03-05 14:11:00,34.0,17.0,-100.00,North,3,2.0,2.0,50,-99.99,,,-99.99,,2013-03-05 21:11:00,
2013-03-05 14:21:00,34.0,17.0,-100.00,North,3,2.0,2.0,50,-99.99,,,-99.99,,2013-03-05 21:21:00,
2013-03-05 14:30:00,34.0,17.0,-100.00,North,4,2.0,2.0,49,-99.99,,,-99.99,,2013-03-05 21:30:00,
2013-03-05 15:11:00,34.0,17.0,-100.00,North,4,2.0,2.0,49,-99.99,,,-99.99,,2013-03-05 22:11:00,
2013-03-05 15:21:00,34.0,17.0,-100.00,North,4,2.0,2.0,49,-99.99,,,-99.99,,2013-03-05 22:21:00,
2013-03-05 15:30:00,35.0,16.0,-100.00,NW,311,2.0,2.0,45,-99.99,,,-99.99,,2013-03-05 22:30:00,
2013-03-05 16:11:00,35.0,16.0,-100.00,NW,311,2.0,2.0,45,-99.99,,,-99.99,,2013-03-05 23:11:00,
2013-03-05 16:21:00,35.0,16.0,-100.00,NW,311,2.0,2.0,45,-99.99,,,-99.99,,2013-03-05 23:21:00,
2013-03-05 16:30:00,35.0,17.0,-100.00,North,9,2.0,2.0,48,-99.99,,,-99.99,,2013-03-05 23:30:00,
2013-03-05 17:11:00,35.0,17.0,-100.00,North,9,2.0,2.0,48,-99.99,,,-99.99,,2013-03-06 00:11:00,
2013-03-05 17:21:00,35.0,17.0,-100.00,North,9,2.0,2.0,48,-99.99,,,-99.99,,2013-03-06 00:21:00,
2013-03-05 18:30:00,34.0,20.0,-100.00,West,262,0.0,0.0,57,-99.99,,,-99.99,,2013-03-06 01:30:00,
2013-03-05 19:11:00,34.0,20.0,-100.00,West,262,0.0,0.0,57,-99.99,,,-99.99,,2013-03-06 02:11:00,
2013-03-05 19:21:00,34.0,20.0,-100.00,West,262,0.0,0.0,57,-99.99,,,-99.99,,2013-03-06 02:21:00,
2013-03-05 19:30:00,33.0,19.0,-100.00,NNW,328,2.0,2.0,56,-99.99,,,-99.99,,2013-03-06 02:30:00,
2013-03-05 20:11:00,33.0,19.0,-100.00,NNW,328,2.0,2.0,56,-99.99,,,-99.99,,2013-03-06 03:11:00,
2013-03-05 20:21:00,33.0,19.0,-100.00,NNW,328,2.0,2.0,56,-99.99,,,-99.99,,2013-03-06 03:21:00,
2013-03-05 20:30:00,33.0,21.0,-100.00,WNW,301,2.0,4.0,62,-99.99,,,-99.99,,2013-03-06 03:30:00,
2013-03-05 21:11:00,33.0,21.0,-100.00,WNW,301,2.0,4.0,62,-99.99,,,-99.99,,2013-03-06 04:11:00,
2013-03-05 21:21:00,33.0,21.0,-100.00,WNW,301,2.0,4.0,62,-99.99,,,-99.99,,2013-03-06 04:21:00,
2013-03-05 21:30:00,33.0,21.0,-100.00,NW,313,0.0,0.0,62,-99.99,,,-99.99,,2013-03-06 04:30:00,
2013-03-05 22:11:00,33.0,21.0,-100.00,NW,313,0.0,0.0,62,-99.99,,,-99.99,,2013-03-06 05:11:00,
2013-03-05 22:22:00,33.0,21.0,-100.00,NW,313,0.0,0.0,62,-99.99,,,-99.99,,2013-03-06 05:22:00,
2013-03-05 22:30:00,32.0,25.0,-100.00,NNW,339,0.0,2.0,76,-99.99,,,-99.99,,2013-03-06 05:30:00,
2013-03-05 23:11:00,32.0,25.0,-100.00,NNW,339,0.0,2.0,76,-99.99,,,-99.99,,2013-03-06 06:11:00,
2013-03-05 23:22:00,32.0,25.0,-100.00,NNW,339,0.0,2.0,76,-99.99,,,-99.99,,2013-03-06 06:22:00,
2013-03-05 23:30:00,32.0,25.0,-100.00,NNW,339,2.0,2.0,75,-99.99,,,-99.99,,2013-03-06 06:30:00,